sensor_id;sensor_type;location;lat;lon;timestamp;temperature;humidity
698;DHT22;331;48.414;9.938;2022-08-18T00:02:22;23.00;80.40
698;DHT22;331;48.414;9.938;2022-08-18T00:04:50;23.00;80.40
698;DHT22;331;48.414;9.938;2022-08-18T00:07:18;23.00;80.50
698;DHT22;331;48.414;9.938;2022-08-18T00:09:46;22.90;80.70
698;DHT22;331;48.414;9.938;2022-08-18T00:12:14;22.90;80.70
698;DHT22;331;48.414;9.938;2022-08-18T00:14:41;22.90;80.80
698;DHT22;331;48.414;9.938;2022-08-18T00:17:09;22.90;80.80
698;DHT22;331;48.414;9.938;2022-08-18T00:19:35;22.90;80.60
698;DHT22;331;48.414;9.938;2022-08-18T00:22:02;22.80;80.50
698;DHT22;331;48.414;9.938;2022-08-18T00:24:29;22.80;80.60
698;DHT22;331;48.414;9.938;2022-08-18T00:26:58;22.80;80.70
698;DHT22;331;48.414;9.938;2022-08-18T00:29:24;22.80;80.80
698;DHT22;331;48.414;9.938;2022-08-18T00:31:51;22.70;81.00
698;DHT22;331;48.414;9.938;2022-08-18T00:34:18;22.70;81.00
698;DHT22;331;48.414;9.938;2022-08-18T00:36:45;22.70;81.10
698;DHT22;331;48.414;9.938;2022-08-18T00:39:12;22.70;81.20
698;DHT22;331;48.414;9.938;2022-08-18T00:41:39;22.70;81.30
698;DHT22;331;48.414;9.938;2022-08-18T00:44:07;22.60;81.30
698;DHT22;331;48.414;9.938;2022-08-18T00:46:35;22.60;81.50
698;DHT22;331;48.414;9.938;2022-08-18T00:49:02;22.60;81.60
698;DHT22;331;48.414;9.938;2022-08-18T00:51:32;22.60;81.60
698;DHT22;331;48.414;9.938;2022-08-18T00:54:00;22.60;81.80
698;DHT22;331;48.414;9.938;2022-08-18T00:56:29;22.60;82.10
698;DHT22;331;48.414;9.938;2022-08-18T00:58:59;22.50;82.20
698;DHT22;331;48.414;9.938;2022-08-18T01:01:29;22.50;82.30
698;DHT22;331;48.414;9.938;2022-08-18T01:03:58;22.50;82.20
698;DHT22;331;48.414;9.938;2022-08-18T01:06:28;22.40;82.10
698;DHT22;331;48.414;9.938;2022-08-18T01:08:57;22.40;81.90
698;DHT22;331;48.414;9.938;2022-08-18T01:11:24;22.40;81.80
698;DHT22;331;48.414;9.938;2022-08-18T01:13:51;22.40;81.70
698;DHT22;331;48.414;9.938;2022-08-18T01:16:19;22.40;81.70
698;DHT22;331;48.414;9.938;2022-08-18T01:19:04;22.40;81.70
698;DHT22;331;48.414;9.938;2022-08-18T01:21:50;22.30;81.60
698;DHT22;331;48.414;9.938;2022-08-18T01:24:20;22.30;81.60
698;DHT22;331;48.414;9.938;2022-08-18T01:27:09;22.30;81.60
698;DHT22;331;48.414;9.938;2022-08-18T01:29:36;22.30;81.70
698;DHT22;331;48.414;9.938;2022-08-18T01:32:02;22.30;81.60
698;DHT22;331;48.414;9.938;2022-08-18T01:34:29;22.20;81.50
698;DHT22;331;48.414;9.938;2022-08-18T01:36:56;22.20;81.50
698;DHT22;331;48.414;9.938;2022-08-18T01:39:25;22.20;81.40
698;DHT22;331;48.414;9.938;2022-08-18T01:41:51;22.20;81.40
698;DHT22;331;48.414;9.938;2022-08-18T01:44:18;22.10;81.40
698;DHT22;331;48.414;9.938;2022-08-18T01:46:45;22.10;81.30
698;DHT22;331;48.414;9.938;2022-08-18T01:49:12;22.10;81.30
698;DHT22;331;48.414;9.938;2022-08-18T01:51:39;22.10;81.30
698;DHT22;331;48.414;9.938;2022-08-18T01:54:08;22.10;81.40
698;DHT22;331;48.414;9.938;2022-08-18T01:56:37;22.10;81.60
698;DHT22;331;48.414;9.938;2022-08-18T01:59:05;22.10;81.70
698;DHT22;331;48.414;9.938;2022-08-18T02:01:36;22.00;81.70
698;DHT22;331;48.414;9.938;2022-08-18T02:04:04;22.00;81.70
698;DHT22;331;48.414;9.938;2022-08-18T02:06:31;22.00;81.70
698;DHT22;331;48.414;9.938;2022-08-18T02:08:58;22.00;81.70
698;DHT22;331;48.414;9.938;2022-08-18T02:11:25;21.90;81.50
698;DHT22;331;48.414;9.938;2022-08-18T02:13:53;21.90;81.40
698;DHT22;331;48.414;9.938;2022-08-18T02:16:20;21.90;81.50
698;DHT22;331;48.414;9.938;2022-08-18T02:18:47;21.90;81.50
698;DHT22;331;48.414;9.938;2022-08-18T02:21:15;21.90;81.50
698;DHT22;331;48.414;9.938;2022-08-18T02:23:43;21.90;82.20
698;DHT22;331;48.414;9.938;2022-08-18T02:26:11;21.80;81.50
698;DHT22;331;48.414;9.938;2022-08-18T02:28:38;21.80;81.60
698;DHT22;331;48.414;9.938;2022-08-18T02:31:07;21.80;81.60
698;DHT22;331;48.414;9.938;2022-08-18T02:33:34;21.80;81.70
698;DHT22;331;48.414;9.938;2022-08-18T02:36:02;21.80;81.80
698;DHT22;331;48.414;9.938;2022-08-18T02:38:29;21.80;81.90
698;DHT22;331;48.414;9.938;2022-08-18T02:40:56;21.70;81.80
698;DHT22;331;48.414;9.938;2022-08-18T02:43:25;21.70;81.80
698;DHT22;331;48.414;9.938;2022-08-18T02:45:52;21.70;81.80
698;DHT22;331;48.414;9.938;2022-08-18T02:48:21;21.70;81.80
698;DHT22;331;48.414;9.938;2022-08-18T02:50:49;21.70;81.80
698;DHT22;331;48.414;9.938;2022-08-18T02:53:16;21.70;81.80
698;DHT22;331;48.414;9.938;2022-08-18T02:55:47;21.70;81.80
698;DHT22;331;48.414;9.938;2022-08-18T02:58:14;21.60;81.90
698;DHT22;331;48.414;9.938;2022-08-18T03:00:41;21.60;81.90
698;DHT22;331;48.414;9.938;2022-08-18T03:03:08;21.60;81.90
698;DHT22;331;48.414;9.938;2022-08-18T03:05:36;21.60;82.10
698;DHT22;331;48.414;9.938;2022-08-18T03:08:03;21.60;82.20
698;DHT22;331;48.414;9.938;2022-08-18T03:10:30;21.60;82.40
698;DHT22;331;48.414;9.938;2022-08-18T03:12:57;21.60;82.30
698;DHT22;331;48.414;9.938;2022-08-18T03:15:24;21.50;82.30
698;DHT22;331;48.414;9.938;2022-08-18T03:17:51;21.50;82.30
698;DHT22;331;48.414;9.938;2022-08-18T03:20:18;21.50;82.40
698;DHT22;331;48.414;9.938;2022-08-18T03:22:46;21.50;82.30
698;DHT22;331;48.414;9.938;2022-08-18T03:25:14;21.50;82.40
698;DHT22;331;48.414;9.938;2022-08-18T03:27:41;21.50;82.50
698;DHT22;331;48.414;9.938;2022-08-18T03:30:08;21.50;82.50
698;DHT22;331;48.414;9.938;2022-08-18T03:32:36;21.50;82.40
698;DHT22;331;48.414;9.938;2022-08-18T03:35:04;21.40;82.30
698;DHT22;331;48.414;9.938;2022-08-18T03:37:31;21.40;82.30
698;DHT22;331;48.414;9.938;2022-08-18T03:39:59;21.40;82.40
698;DHT22;331;48.414;9.938;2022-08-18T03:42:26;21.40;82.40
698;DHT22;331;48.414;9.938;2022-08-18T03:44:53;21.40;82.40
698;DHT22;331;48.414;9.938;2022-08-18T03:47:20;21.40;82.50
698;DHT22;331;48.414;9.938;2022-08-18T03:49:47;21.30;82.40
698;DHT22;331;48.414;9.938;2022-08-18T03:52:14;21.30;82.50
698;DHT22;331;48.414;9.938;2022-08-18T03:54:41;21.30;82.50
698;DHT22;331;48.414;9.938;2022-08-18T03:57:09;21.30;82.60
698;DHT22;331;48.414;9.938;2022-08-18T03:59:37;21.30;82.60
698;DHT22;331;48.414;9.938;2022-08-18T04:02:06;21.30;82.60
698;DHT22;331;48.414;9.938;2022-08-18T04:04:33;21.30;82.60
698;DHT22;331;48.414;9.938;2022-08-18T04:07:00;21.30;82.80
698;DHT22;331;48.414;9.938;2022-08-18T04:09:29;21.30;82.90
698;DHT22;331;48.414;9.938;2022-08-18T04:11:56;21.20;83.00
698;DHT22;331;48.414;9.938;2022-08-18T04:14:25;21.20;83.20
698;DHT22;331;48.414;9.938;2022-08-18T04:16:54;21.20;83.40
698;DHT22;331;48.414;9.938;2022-08-18T04:19:21;21.20;83.50
698;DHT22;331;48.414;9.938;2022-08-18T04:21:50;21.20;83.60
698;DHT22;331;48.414;9.938;2022-08-18T04:24:17;21.20;83.70
698;DHT22;331;48.414;9.938;2022-08-18T04:26:45;21.20;83.60
698;DHT22;331;48.414;9.938;2022-08-18T04:29:12;21.20;83.90
698;DHT22;331;48.414;9.938;2022-08-18T04:31:41;21.10;83.80
698;DHT22;331;48.414;9.938;2022-08-18T04:34:07;21.10;83.80
698;DHT22;331;48.414;9.938;2022-08-18T04:36:34;21.10;83.80
698;DHT22;331;48.414;9.938;2022-08-18T04:39:02;21.10;84.00
698;DHT22;331;48.414;9.938;2022-08-18T04:41:32;21.10;84.10
698;DHT22;331;48.414;9.938;2022-08-18T04:44:00;21.10;84.20
698;DHT22;331;48.414;9.938;2022-08-18T04:46:27;21.00;84.10
698;DHT22;331;48.414;9.938;2022-08-18T04:48:57;21.00;84.20
698;DHT22;331;48.414;9.938;2022-08-18T04:51:25;21.00;84.20
698;DHT22;331;48.414;9.938;2022-08-18T04:53:52;21.00;84.20
698;DHT22;331;48.414;9.938;2022-08-18T04:56:20;21.00;84.30
698;DHT22;331;48.414;9.938;2022-08-18T04:58:50;21.00;84.40
698;DHT22;331;48.414;9.938;2022-08-18T05:01:18;21.00;84.30
698;DHT22;331;48.414;9.938;2022-08-18T05:03:46;20.90;84.30
698;DHT22;331;48.414;9.938;2022-08-18T05:06:15;20.90;84.30
698;DHT22;331;48.414;9.938;2022-08-18T05:08:42;20.90;84.40
698;DHT22;331;48.414;9.938;2022-08-18T05:11:09;20.90;84.40
698;DHT22;331;48.414;9.938;2022-08-18T05:13:36;20.90;84.60
698;DHT22;331;48.414;9.938;2022-08-18T05:16:03;20.90;84.80
698;DHT22;331;48.414;9.938;2022-08-18T05:18:31;20.90;85.00
698;DHT22;331;48.414;9.938;2022-08-18T05:20:59;20.80;85.00
698;DHT22;331;48.414;9.938;2022-08-18T05:23:27;20.80;85.00
698;DHT22;331;48.414;9.938;2022-08-18T05:25:56;20.80;85.20
698;DHT22;331;48.414;9.938;2022-08-18T05:28:23;20.80;85.30
698;DHT22;331;48.414;9.938;2022-08-18T05:30:50;20.80;85.30
698;DHT22;331;48.414;9.938;2022-08-18T05:33:17;20.80;85.40
698;DHT22;331;48.414;9.938;2022-08-18T05:35:45;20.80;85.50
698;DHT22;331;48.414;9.938;2022-08-18T05:38:29;20.80;85.40
698;DHT22;331;48.414;9.938;2022-08-18T05:41:04;20.80;85.40
698;DHT22;331;48.414;9.938;2022-08-18T05:43:32;20.80;85.40
698;DHT22;331;48.414;9.938;2022-08-18T05:45:59;20.70;85.30
698;DHT22;331;48.414;9.938;2022-08-18T05:48:27;20.70;85.30
698;DHT22;331;48.414;9.938;2022-08-18T05:50:54;20.70;85.20
698;DHT22;331;48.414;9.938;2022-08-18T05:53:22;20.70;85.20
698;DHT22;331;48.414;9.938;2022-08-18T05:56:10;20.70;85.20
698;DHT22;331;48.414;9.938;2022-08-18T05:58:56;20.60;85.10
698;DHT22;331;48.414;9.938;2022-08-18T06:01:25;20.60;85.10
698;DHT22;331;48.414;9.938;2022-08-18T06:03:54;20.60;85.10
698;DHT22;331;48.414;9.938;2022-08-18T06:06:24;20.60;85.10
698;DHT22;331;48.414;9.938;2022-08-18T06:08:54;20.60;85.10
698;DHT22;331;48.414;9.938;2022-08-18T06:11:23;20.60;85.00
698;DHT22;331;48.414;9.938;2022-08-18T06:13:50;20.60;85.10
698;DHT22;331;48.414;9.938;2022-08-18T06:16:18;20.60;85.00
698;DHT22;331;48.414;9.938;2022-08-18T06:18:49;20.60;85.00
698;DHT22;331;48.414;9.938;2022-08-18T06:21:25;20.60;85.00
698;DHT22;331;48.414;9.938;2022-08-18T06:23:59;20.60;85.00
698;DHT22;331;48.414;9.938;2022-08-18T06:26:33;20.60;85.10
698;DHT22;331;48.414;9.938;2022-08-18T06:29:06;20.60;85.10
698;DHT22;331;48.414;9.938;2022-08-18T06:31:39;20.60;85.10
698;DHT22;331;48.414;9.938;2022-08-18T06:34:12;20.50;85.00
698;DHT22;331;48.414;9.938;2022-08-18T06:36:43;20.50;85.10
698;DHT22;331;48.414;9.938;2022-08-18T06:39:16;20.50;85.00
698;DHT22;331;48.414;9.938;2022-08-18T06:41:48;20.50;85.00
698;DHT22;331;48.414;9.938;2022-08-18T06:44:20;20.50;84.90
698;DHT22;331;48.414;9.938;2022-08-18T06:46:48;20.50;85.00
698;DHT22;331;48.414;9.938;2022-08-18T06:49:19;20.50;85.10
698;DHT22;331;48.414;9.938;2022-08-18T06:51:47;20.50;85.20
698;DHT22;331;48.414;9.938;2022-08-18T06:54:27;20.50;85.20
698;DHT22;331;48.414;9.938;2022-08-18T06:56:56;20.50;85.20
698;DHT22;331;48.414;9.938;2022-08-18T06:59:25;20.50;85.30
698;DHT22;331;48.414;9.938;2022-08-18T07:01:53;20.40;85.20
698;DHT22;331;48.414;9.938;2022-08-18T07:07:17;20.40;85.30
698;DHT22;331;48.414;9.938;2022-08-18T07:09:45;20.50;85.40
698;DHT22;331;48.414;9.938;2022-08-18T07:12:19;20.40;85.30
698;DHT22;331;48.414;9.938;2022-08-18T07:14:48;20.40;85.30
698;DHT22;331;48.414;9.938;2022-08-18T07:17:18;20.40;85.30
698;DHT22;331;48.414;9.938;2022-08-18T07:19:53;20.40;85.30
698;DHT22;331;48.414;9.938;2022-08-18T07:22:20;20.40;85.30
698;DHT22;331;48.414;9.938;2022-08-18T07:24:47;20.40;85.20
698;DHT22;331;48.414;9.938;2022-08-18T07:27:16;20.50;85.30
698;DHT22;331;48.414;9.938;2022-08-18T07:29:59;20.40;85.30
698;DHT22;331;48.414;9.938;2022-08-18T07:32:28;20.40;85.30
698;DHT22;331;48.414;9.938;2022-08-18T07:34:58;20.40;85.40
698;DHT22;331;48.414;9.938;2022-08-18T07:37:29;20.50;85.60
698;DHT22;331;48.414;9.938;2022-08-18T07:39:58;20.50;85.60
698;DHT22;331;48.414;9.938;2022-08-18T07:42:29;20.40;85.60
698;DHT22;331;48.414;9.938;2022-08-18T07:44:59;20.50;85.80
698;DHT22;331;48.414;9.938;2022-08-18T07:47:30;20.40;85.80
698;DHT22;331;48.414;9.938;2022-08-18T07:49:57;20.40;85.80
698;DHT22;331;48.414;9.938;2022-08-18T07:52:25;20.40;85.80
698;DHT22;331;48.414;9.938;2022-08-18T07:54:56;20.40;85.80
698;DHT22;331;48.414;9.938;2022-08-18T07:57:26;20.40;85.80
698;DHT22;331;48.414;9.938;2022-08-18T07:59:56;20.40;85.90
698;DHT22;331;48.414;9.938;2022-08-18T08:02:30;20.50;86.20
698;DHT22;331;48.414;9.938;2022-08-18T08:05:02;20.50;86.40
698;DHT22;331;48.414;9.938;2022-08-18T08:07:31;20.40;86.20
698;DHT22;331;48.414;9.938;2022-08-18T08:10:07;20.50;86.40
698;DHT22;331;48.414;9.938;2022-08-18T08:12:39;20.50;86.30
698;DHT22;331;48.414;9.938;2022-08-18T08:15:17;20.50;86.40
698;DHT22;331;48.414;9.938;2022-08-18T08:17:49;20.40;86.30
698;DHT22;331;48.414;9.938;2022-08-18T08:20:21;20.40;86.20
698;DHT22;331;48.414;9.938;2022-08-18T08:25:35;20.40;86.40
698;DHT22;331;48.414;9.938;2022-08-18T08:28:05;20.40;86.50
698;DHT22;331;48.414;9.938;2022-08-18T08:30:35;20.40;86.50
698;DHT22;331;48.414;9.938;2022-08-18T08:33:06;20.40;86.60
698;DHT22;331;48.414;9.938;2022-08-18T08:35:38;20.40;86.50
698;DHT22;331;48.414;9.938;2022-08-18T08:38:09;20.40;86.70
698;DHT22;331;48.414;9.938;2022-08-18T08:40:39;20.40;86.80
698;DHT22;331;48.414;9.938;2022-08-18T08:43:08;20.40;87.00
698;DHT22;331;48.414;9.938;2022-08-18T08:45:36;20.40;87.20
698;DHT22;331;48.414;9.938;2022-08-18T08:48:19;20.50;87.40
698;DHT22;331;48.414;9.938;2022-08-18T08:50:50;20.50;87.40
698;DHT22;331;48.414;9.938;2022-08-18T08:53:20;20.50;87.60
698;DHT22;331;48.414;9.938;2022-08-18T08:55:51;20.50;87.40
698;DHT22;331;48.414;9.938;2022-08-18T08:58:21;20.50;87.30
698;DHT22;331;48.414;9.938;2022-08-18T09:00:50;20.50;87.30
698;DHT22;331;48.414;9.938;2022-08-18T09:03:23;20.50;87.30
698;DHT22;331;48.414;9.938;2022-08-18T09:05:53;20.50;87.30
698;DHT22;331;48.414;9.938;2022-08-18T09:08:35;20.60;87.50
698;DHT22;331;48.414;9.938;2022-08-18T09:11:14;20.60;87.50
698;DHT22;331;48.414;9.938;2022-08-18T09:14:02;20.60;87.30
698;DHT22;331;48.414;9.938;2022-08-18T09:16:38;20.60;87.40
698;DHT22;331;48.414;9.938;2022-08-18T09:19:15;20.60;87.30
698;DHT22;331;48.414;9.938;2022-08-18T09:21:47;20.60;87.30
698;DHT22;331;48.414;9.938;2022-08-18T09:24:19;20.60;87.30
698;DHT22;331;48.414;9.938;2022-08-18T09:26:49;20.60;87.20
698;DHT22;331;48.414;9.938;2022-08-18T09:29:19;20.60;87.10
698;DHT22;331;48.414;9.938;2022-08-18T09:31:48;20.70;87.20
698;DHT22;331;48.414;9.938;2022-08-18T09:34:26;20.70;87.40
698;DHT22;331;48.414;9.938;2022-08-18T09:36:59;20.70;87.50
698;DHT22;331;48.414;9.938;2022-08-18T09:39:30;20.70;87.60
698;DHT22;331;48.414;9.938;2022-08-18T09:42:16;20.70;87.30
698;DHT22;331;48.414;9.938;2022-08-18T09:44:58;20.70;87.20
698;DHT22;331;48.414;9.938;2022-08-18T09:52:59;20.80;87.10
698;DHT22;331;48.414;9.938;2022-08-18T09:55:51;20.80;86.90
698;DHT22;331;48.414;9.938;2022-08-18T09:58:29;20.80;87.00
698;DHT22;331;48.414;9.938;2022-08-18T10:01:19;20.80;87.30
698;DHT22;331;48.414;9.938;2022-08-18T10:06:27;20.90;87.70
698;DHT22;331;48.414;9.938;2022-08-18T10:09:00;20.90;87.80
698;DHT22;331;48.414;9.938;2022-08-18T10:14:17;21.00;87.60
698;DHT22;331;48.414;9.938;2022-08-18T10:16:51;21.00;87.80
698;DHT22;331;48.414;9.938;2022-08-18T10:19:25;21.00;87.80
698;DHT22;331;48.414;9.938;2022-08-18T10:22:00;21.00;87.70
698;DHT22;331;48.414;9.938;2022-08-18T10:24:27;21.00;87.80
698;DHT22;331;48.414;9.938;2022-08-18T10:26:58;21.00;87.60
698;DHT22;331;48.414;9.938;2022-08-18T10:32:21;21.10;87.80
698;DHT22;331;48.414;9.938;2022-08-18T10:34:49;21.10;87.70
698;DHT22;331;48.414;9.938;2022-08-18T10:37:17;21.20;88.80
698;DHT22;331;48.414;9.938;2022-08-18T10:39:45;21.20;88.80
698;DHT22;331;48.414;9.938;2022-08-18T10:42:19;21.20;88.60
698;DHT22;331;48.414;9.938;2022-08-18T10:44:48;21.20;88.40
698;DHT22;331;48.414;9.938;2022-08-18T10:47:21;21.20;88.20
698;DHT22;331;48.414;9.938;2022-08-18T10:49:49;21.30;88.40
698;DHT22;331;48.414;9.938;2022-08-18T10:52:31;21.30;88.20
698;DHT22;331;48.414;9.938;2022-08-18T10:55:06;21.30;88.10
698;DHT22;331;48.414;9.938;2022-08-18T10:57:49;21.30;88.00
698;DHT22;331;48.414;9.938;2022-08-18T11:00:20;21.30;87.70
698;DHT22;331;48.414;9.938;2022-08-18T11:02:59;21.30;87.40
698;DHT22;331;48.414;9.938;2022-08-18T11:05:30;21.30;87.40
698;DHT22;331;48.414;9.938;2022-08-18T11:07:58;21.40;87.80
698;DHT22;331;48.414;9.938;2022-08-18T11:10:33;21.40;87.90
698;DHT22;331;48.414;9.938;2022-08-18T11:13:03;21.40;88.20
698;DHT22;331;48.414;9.938;2022-08-18T11:15:34;21.40;87.80
698;DHT22;331;48.414;9.938;2022-08-18T11:18:07;21.40;87.60
698;DHT22;331;48.414;9.938;2022-08-18T11:20:38;21.40;87.50
698;DHT22;331;48.414;9.938;2022-08-18T11:23:10;21.50;87.60
698;DHT22;331;48.414;9.938;2022-08-18T11:25:39;21.50;88.10
698;DHT22;331;48.414;9.938;2022-08-18T11:28:13;21.50;87.80
698;DHT22;331;48.414;9.938;2022-08-18T11:30:40;21.50;88.30
698;DHT22;331;48.414;9.938;2022-08-18T11:33:13;21.50;88.40
698;DHT22;331;48.414;9.938;2022-08-18T11:35:44;21.60;88.30
698;DHT22;331;48.414;9.938;2022-08-18T11:38:13;21.60;88.00
698;DHT22;331;48.414;9.938;2022-08-18T11:40:40;21.60;87.80
698;DHT22;331;48.414;9.938;2022-08-18T11:43:10;21.60;87.70
698;DHT22;331;48.414;9.938;2022-08-18T11:45:47;21.60;87.40
698;DHT22;331;48.414;9.938;2022-08-18T11:48:19;21.70;87.80
698;DHT22;331;48.414;9.938;2022-08-18T11:50:47;21.70;87.80
698;DHT22;331;48.414;9.938;2022-08-18T11:53:15;21.70;87.90
698;DHT22;331;48.414;9.938;2022-08-18T11:56:00;21.70;87.70
698;DHT22;331;48.414;9.938;2022-08-18T11:58:38;21.80;88.50
698;DHT22;331;48.414;9.938;2022-08-18T12:01:05;21.80;88.60
698;DHT22;331;48.414;9.938;2022-08-18T12:03:38;21.80;89.00
698;DHT22;331;48.414;9.938;2022-08-18T12:06:17;21.90;89.00
698;DHT22;331;48.414;9.938;2022-08-18T12:08:50;21.90;88.40
698;DHT22;331;48.414;9.938;2022-08-18T12:11:18;21.90;88.00
698;DHT22;331;48.414;9.938;2022-08-18T12:13:46;21.90;88.00
698;DHT22;331;48.414;9.938;2022-08-18T12:16:15;21.90;87.60
698;DHT22;331;48.414;9.938;2022-08-18T12:18:45;22.00;87.60
698;DHT22;331;48.414;9.938;2022-08-18T12:21:11;22.00;87.60
698;DHT22;331;48.414;9.938;2022-08-18T12:23:39;22.00;87.70
698;DHT22;331;48.414;9.938;2022-08-18T12:26:07;22.00;87.70
698;DHT22;331;48.414;9.938;2022-08-18T12:28:34;22.10;88.40
698;DHT22;331;48.414;9.938;2022-08-18T12:31:01;22.20;88.70
698;DHT22;331;48.414;9.938;2022-08-18T12:33:29;22.20;88.80
698;DHT22;331;48.414;9.938;2022-08-18T12:35:57;22.30;89.20
698;DHT22;331;48.414;9.938;2022-08-18T12:38:24;22.30;89.10
698;DHT22;331;48.414;9.938;2022-08-18T12:40:51;22.30;89.80
698;DHT22;331;48.414;9.938;2022-08-18T12:43:17;22.30;89.00
698;DHT22;331;48.414;9.938;2022-08-18T12:45:44;22.30;88.90
698;DHT22;331;48.414;9.938;2022-08-18T12:48:12;22.40;89.20
698;DHT22;331;48.414;9.938;2022-08-18T12:50:39;22.30;88.70
698;DHT22;331;48.414;9.938;2022-08-18T12:53:07;22.30;88.30
698;DHT22;331;48.414;9.938;2022-08-18T12:55:36;22.40;88.30
698;DHT22;331;48.414;9.938;2022-08-18T12:58:03;22.40;88.10
698;DHT22;331;48.414;9.938;2022-08-18T13:00:30;22.40;87.80
698;DHT22;331;48.414;9.938;2022-08-18T13:02:57;22.40;88.60
698;DHT22;331;48.414;9.938;2022-08-18T13:05:24;22.40;88.70
698;DHT22;331;48.414;9.938;2022-08-18T13:07:52;22.50;88.60
698;DHT22;331;48.414;9.938;2022-08-18T13:10:21;22.50;88.60
698;DHT22;331;48.414;9.938;2022-08-18T13:12:48;22.50;88.50
698;DHT22;331;48.414;9.938;2022-08-18T13:15:15;22.60;88.60
698;DHT22;331;48.414;9.938;2022-08-18T13:17:41;22.50;88.40
698;DHT22;331;48.414;9.938;2022-08-18T13:20:13;22.60;88.40
698;DHT22;331;48.414;9.938;2022-08-18T13:22:40;22.60;88.50
698;DHT22;331;48.414;9.938;2022-08-18T13:25:09;22.60;88.10
698;DHT22;331;48.414;9.938;2022-08-18T13:27:37;22.60;88.30
698;DHT22;331;48.414;9.938;2022-08-18T13:30:06;22.70;88.40
698;DHT22;331;48.414;9.938;2022-08-18T13:32:34;22.70;88.10
698;DHT22;331;48.414;9.938;2022-08-18T13:35:01;22.70;88.30
698;DHT22;331;48.414;9.938;2022-08-18T13:37:27;22.70;87.90
698;DHT22;331;48.414;9.938;2022-08-18T13:39:55;22.70;88.00
698;DHT22;331;48.414;9.938;2022-08-18T13:42:22;22.70;87.90
698;DHT22;331;48.414;9.938;2022-08-18T13:44:50;22.70;87.50
698;DHT22;331;48.414;9.938;2022-08-18T13:47:17;22.70;87.70
698;DHT22;331;48.414;9.938;2022-08-18T13:49:44;22.80;87.70
698;DHT22;331;48.414;9.938;2022-08-18T13:52:10;22.80;88.60
698;DHT22;331;48.414;9.938;2022-08-18T13:54:39;22.80;88.10
698;DHT22;331;48.414;9.938;2022-08-18T13:57:07;22.80;88.10
698;DHT22;331;48.414;9.938;2022-08-18T13:59:34;22.80;87.90
698;DHT22;331;48.414;9.938;2022-08-18T14:02:05;22.80;88.00
698;DHT22;331;48.414;9.938;2022-08-18T14:04:32;22.90;87.90
698;DHT22;331;48.414;9.938;2022-08-18T14:07:00;22.90;87.90
698;DHT22;331;48.414;9.938;2022-08-18T14:09:28;22.90;87.80
698;DHT22;331;48.414;9.938;2022-08-18T14:11:56;22.90;87.70
698;DHT22;331;48.414;9.938;2022-08-18T14:14:23;22.90;87.60
698;DHT22;331;48.414;9.938;2022-08-18T14:16:50;22.90;87.60
698;DHT22;331;48.414;9.938;2022-08-18T14:19:18;22.90;87.50
698;DHT22;331;48.414;9.938;2022-08-18T14:22:02;22.90;87.70
698;DHT22;331;48.414;9.938;2022-08-18T14:24:46;22.90;87.50
698;DHT22;331;48.414;9.938;2022-08-18T14:27:32;22.90;87.70
698;DHT22;331;48.414;9.938;2022-08-18T14:29:59;23.00;87.70
698;DHT22;331;48.414;9.938;2022-08-18T14:32:27;23.00;87.70
698;DHT22;331;48.414;9.938;2022-08-18T14:34:56;23.00;87.70
698;DHT22;331;48.414;9.938;2022-08-18T14:37:23;23.00;87.60
698;DHT22;331;48.414;9.938;2022-08-18T14:39:50;23.00;87.40
698;DHT22;331;48.414;9.938;2022-08-18T14:42:17;23.00;87.40
698;DHT22;331;48.414;9.938;2022-08-18T14:44:45;23.00;87.30
698;DHT22;331;48.414;9.938;2022-08-18T14:47:12;23.00;87.30
698;DHT22;331;48.414;9.938;2022-08-18T14:49:39;23.00;87.20
698;DHT22;331;48.414;9.938;2022-08-18T14:52:08;23.00;87.10
698;DHT22;331;48.414;9.938;2022-08-18T14:54:36;23.00;87.00
698;DHT22;331;48.414;9.938;2022-08-18T14:57:03;23.00;87.10
698;DHT22;331;48.414;9.938;2022-08-18T14:59:34;23.00;87.10
698;DHT22;331;48.414;9.938;2022-08-18T15:02:01;23.00;87.10
698;DHT22;331;48.414;9.938;2022-08-18T15:04:28;23.00;87.10
698;DHT22;331;48.414;9.938;2022-08-18T15:06:55;23.00;87.00
698;DHT22;331;48.414;9.938;2022-08-18T15:09:23;23.00;86.90
698;DHT22;331;48.414;9.938;2022-08-18T15:11:50;23.00;86.90
698;DHT22;331;48.414;9.938;2022-08-18T15:14:18;23.00;86.90
698;DHT22;331;48.414;9.938;2022-08-18T15:16:45;23.00;86.90
698;DHT22;331;48.414;9.938;2022-08-18T15:19:13;23.00;86.90
698;DHT22;331;48.414;9.938;2022-08-18T15:21:40;23.10;87.00
698;DHT22;331;48.414;9.938;2022-08-18T15:24:25;23.00;86.80
698;DHT22;331;48.414;9.938;2022-08-18T15:27:09;23.00;86.80
698;DHT22;331;48.414;9.938;2022-08-18T15:29:36;23.10;86.70
698;DHT22;331;48.414;9.938;2022-08-18T15:32:03;23.00;86.70
698;DHT22;331;48.414;9.938;2022-08-18T15:34:30;23.00;86.60
698;DHT22;331;48.414;9.938;2022-08-18T15:36:57;23.00;86.60
698;DHT22;331;48.414;9.938;2022-08-18T15:39:24;23.00;86.40
698;DHT22;331;48.414;9.938;2022-08-18T15:41:52;23.10;86.50
698;DHT22;331;48.414;9.938;2022-08-18T15:44:19;23.00;86.40
698;DHT22;331;48.414;9.938;2022-08-18T15:46:46;23.00;86.40
698;DHT22;331;48.414;9.938;2022-08-18T15:49:13;23.10;86.40
698;DHT22;331;48.414;9.938;2022-08-18T15:51:40;23.00;86.30
698;DHT22;331;48.414;9.938;2022-08-18T15:54:08;23.00;86.30
698;DHT22;331;48.414;9.938;2022-08-18T15:56:35;23.00;86.20
698;DHT22;331;48.414;9.938;2022-08-18T15:59:03;23.00;86.20
698;DHT22;331;48.414;9.938;2022-08-18T16:01:32;23.00;86.20
698;DHT22;331;48.414;9.938;2022-08-18T16:04:00;23.00;86.10
698;DHT22;331;48.414;9.938;2022-08-18T16:06:28;23.00;86.10
698;DHT22;331;48.414;9.938;2022-08-18T16:08:55;23.00;86.10
698;DHT22;331;48.414;9.938;2022-08-18T16:11:21;23.00;86.00
698;DHT22;331;48.414;9.938;2022-08-18T16:13:48;23.00;86.00
698;DHT22;331;48.414;9.938;2022-08-18T16:16:18;23.00;86.00
698;DHT22;331;48.414;9.938;2022-08-18T16:18:45;23.00;86.00
698;DHT22;331;48.414;9.938;2022-08-18T16:21:14;23.00;86.00
698;DHT22;331;48.414;9.938;2022-08-18T16:23:41;23.00;86.00
698;DHT22;331;48.414;9.938;2022-08-18T16:26:09;23.00;86.00
698;DHT22;331;48.414;9.938;2022-08-18T16:28:39;23.00;86.00
698;DHT22;331;48.414;9.938;2022-08-18T16:31:05;23.00;86.00
698;DHT22;331;48.414;9.938;2022-08-18T16:33:34;23.00;86.00
698;DHT22;331;48.414;9.938;2022-08-18T16:36:02;23.00;86.00
698;DHT22;331;48.414;9.938;2022-08-18T16:38:30;23.00;86.10
698;DHT22;331;48.414;9.938;2022-08-18T16:41:01;22.90;86.00
698;DHT22;331;48.414;9.938;2022-08-18T16:43:28;23.00;86.10
698;DHT22;331;48.414;9.938;2022-08-18T16:45:55;22.90;86.00
698;DHT22;331;48.414;9.938;2022-08-18T16:48:22;23.00;86.10
698;DHT22;331;48.414;9.938;2022-08-18T16:50:50;22.90;86.00
698;DHT22;331;48.414;9.938;2022-08-18T16:53:17;23.00;86.10
698;DHT22;331;48.414;9.938;2022-08-18T16:55:44;22.90;86.10
698;DHT22;331;48.414;9.938;2022-08-18T16:58:11;22.90;86.10
698;DHT22;331;48.414;9.938;2022-08-18T17:00:56;22.90;86.10
698;DHT22;331;48.414;9.938;2022-08-18T17:03:40;22.90;86.10
698;DHT22;331;48.414;9.938;2022-08-18T17:06:26;22.90;86.10
698;DHT22;331;48.414;9.938;2022-08-18T17:08:53;22.90;86.00
698;DHT22;331;48.414;9.938;2022-08-18T17:11:21;22.90;86.10